sensor_id;sensor_type;location;lat;lon;timestamp;pressure;altitude;pressure_sealevel;temperature;humidity
61478;BME280;47345;52.334;10.392;2023-04-01T00:02:25;98831.08;;;10.01;90.94
61478;BME280;47345;52.334;10.392;2023-04-01T00:04:56;98833.23;;;10.02;90.93
61478;BME280;47345;52.334;10.392;2023-04-01T00:07:26;98829.73;;;10.01;90.99
61478;BME280;47345;52.334;10.392;2023-04-01T00:09:59;98831.80;;;10.02;90.96
61478;BME280;47345;52.334;10.392;2023-04-01T00:12:30;98832.17;;;10.01;90.84
61478;BME280;47345;52.334;10.392;2023-04-01T00:15:01;98831.23;;;10.00;90.82
61478;BME280;47345;52.334;10.392;2023-04-01T00:17:32;98829.52;;;9.99;90.92
61478;BME280;47345;52.334;10.392;2023-04-01T00:20:03;98829.67;;;9.99;90.82
61478;BME280;47345;52.334;10.392;2023-04-01T00:22:34;98828.85;;;9.98;90.82
61478;BME280;47345;52.334;10.392;2023-04-01T00:25:06;98828.96;;;9.98;90.84
61478;BME280;47345;52.334;10.392;2023-04-01T00:27:37;98830.61;;;9.98;90.84
61478;BME280;47345;52.334;10.392;2023-04-01T00:30:10;98828.76;;;9.99;90.73
61478;BME280;47345;52.334;10.392;2023-04-01T00:32:41;98827.28;;;9.99;90.71
61478;BME280;47345;52.334;10.392;2023-04-01T00:35:12;98829.23;;;9.98;90.58
61478;BME280;47345;52.334;10.392;2023-04-01T00:37:43;98827.97;;;9.98;90.55
61478;BME280;47345;52.334;10.392;2023-04-01T00:40:25;98827.42;;;9.97;90.46
61478;BME280;47345;52.334;10.392;2023-04-01T00:42:57;98829.38;;;9.97;90.41
61478;BME280;47345;52.334;10.392;2023-04-01T00:45:31;98831.79;;;9.97;90.27
61478;BME280;47345;52.334;10.392;2023-04-01T00:48:04;98830.85;;;9.97;90.08
61478;BME280;47345;52.334;10.392;2023-04-01T00:50:38;98830.36;;;9.97;90.20
61478;BME280;47345;52.334;10.392;2023-04-01T00:53:11;98823.83;;;9.97;90.08
61478;BME280;47345;52.334;10.392;2023-04-01T00:55:45;98827.91;;;9.97;89.99
61478;BME280;47345;52.334;10.392;2023-04-01T00:58:21;98828.36;;;9.98;90.17
61478;BME280;47345;52.334;10.392;2023-04-01T01:00:55;98828.30;;;9.97;89.99
61478;BME280;47345;52.334;10.392;2023-04-01T01:03:27;98826.65;;;9.97;89.93
61478;BME280;47345;52.334;10.392;2023-04-01T01:06:10;98827.85;;;9.96;89.95
61478;BME280;47345;52.334;10.392;2023-04-01T01:08:56;98829.55;;;9.97;90.02
61478;BME280;47345;52.334;10.392;2023-04-01T01:11:37;98830.05;;;9.97;89.90
61478;BME280;47345;52.334;10.392;2023-04-01T01:14:22;98825.71;;;9.96;89.77
61478;BME280;47345;52.334;10.392;2023-04-01T01:16:58;98826.63;;;9.95;89.94
61478;BME280;47345;52.334;10.392;2023-04-01T01:19:49;98827.09;;;9.93;89.79
61478;BME280;47345;52.334;10.392;2023-04-01T01:22:37;98825.91;;;9.91;89.80
61478;BME280;47345;52.334;10.392;2023-04-01T01:25:31;98819.06;;;9.90;89.80
61478;BME280;47345;52.334;10.392;2023-04-01T01:28:21;98822.33;;;9.89;89.76
61478;BME280;47345;52.334;10.392;2023-04-01T01:31:00;98821.00;;;9.88;89.84
61478;BME280;47345;52.334;10.392;2023-04-01T01:34:02;98820.50;;;9.87;89.71
61478;BME280;47345;52.334;10.392;2023-04-01T01:36:39;98820.97;;;9.86;89.61
61478;BME280;47345;52.334;10.392;2023-04-01T01:39:13;98820.69;;;9.85;89.77
61478;BME280;47345;52.334;10.392;2023-04-01T01:41:46;98822.31;;;9.84;89.72
61478;BME280;47345;52.334;10.392;2023-04-01T01:44:20;98824.37;;;9.84;89.76
61478;BME280;47345;52.334;10.392;2023-04-01T01:46:51;98821.04;;;9.83;89.83
61478;BME280;47345;52.334;10.392;2023-04-01T01:49:22;98824.80;;;9.83;89.78
61478;BME280;47345;52.334;10.392;2023-04-01T01:51:54;98827.05;;;9.83;89.84
61478;BME280;47345;52.334;10.392;2023-04-01T01:54:24;98825.88;;;9.82;89.81
61478;BME280;47345;52.334;10.392;2023-04-01T01:57:03;98826.07;;;9.80;89.91
61478;BME280;47345;52.334;10.392;2023-04-01T01:59:37;98828.14;;;9.80;90.00
61478;BME280;47345;52.334;10.392;2023-04-01T02:02:09;98829.05;;;9.79;90.09
61478;BME280;47345;52.334;10.392;2023-04-01T02:04:42;98831.00;;;9.78;90.01
61478;BME280;47345;52.334;10.392;2023-04-01T02:07:18;98830.61;;;9.78;89.96
61478;BME280;47345;52.334;10.392;2023-04-01T02:09:50;98832.58;;;9.77;90.04
61478;BME280;47345;52.334;10.392;2023-04-01T02:12:23;98833.55;;;9.77;90.29
61478;BME280;47345;52.334;10.392;2023-04-01T02:14:58;98835.35;;;9.77;90.41
61478;BME280;47345;52.334;10.392;2023-04-01T02:17:31;98833.72;;;9.77;90.43
61478;BME280;47345;52.334;10.392;2023-04-01T02:20:07;98833.66;;;9.77;90.50
61478;BME280;47345;52.334;10.392;2023-04-01T02:22:41;98836.45;;;9.77;90.45
61478;BME280;47345;52.334;10.392;2023-04-01T02:25:15;98833.04;;;9.75;90.44
61478;BME280;47345;52.334;10.392;2023-04-01T02:27:47;98837.17;;;9.74;90.46
61478;BME280;47345;52.334;10.392;2023-04-01T02:30:18;98837.77;;;9.74;90.64
61478;BME280;47345;52.334;10.392;2023-04-01T02:32:50;98837.49;;;9.73;90.75
61478;BME280;47345;52.334;10.392;2023-04-01T02:35:21;98835.00;;;9.72;90.82
61478;BME280;47345;52.334;10.392;2023-04-01T02:37:54;98837.40;;;9.72;90.77
61478;BME280;47345;52.334;10.392;2023-04-01T02:40:25;98838.27;;;9.72;91.01
61478;BME280;47345;52.334;10.392;2023-04-01T02:42:55;98836.23;;;9.70;91.02
61478;BME280;47345;52.334;10.392;2023-04-01T02:45:26;98840.79;;;9.71;91.20
61478;BME280;47345;52.334;10.392;2023-04-01T02:47:57;98841.98;;;9.70;91.30
61478;BME280;47345;52.334;10.392;2023-04-01T02:50:27;98843.98;;;9.70;91.27
61478;BME280;47345;52.334;10.392;2023-04-01T02:52:57;98846.48;;;9.70;91.26
61478;BME280;47345;52.334;10.392;2023-04-01T02:55:29;98849.98;;;9.70;91.32
61478;BME280;47345;52.334;10.392;2023-04-01T02:58:01;98847.14;;;9.69;91.52
61478;BME280;47345;52.334;10.392;2023-04-01T03:00:31;98851.50;;;9.69;91.48
61478;BME280;47345;52.334;10.392;2023-04-01T03:03:02;98846.58;;;9.69;91.54
61478;BME280;47345;52.334;10.392;2023-04-01T03:05:33;98850.33;;;9.69;91.59
61478;BME280;47345;52.334;10.392;2023-04-01T03:08:04;98854.56;;;9.69;91.77
61478;BME280;47345;52.334;10.392;2023-04-01T03:10:35;98855.11;;;9.69;91.79
61478;BME280;47345;52.334;10.392;2023-04-01T03:13:06;98852.88;;;9.70;91.78
61478;BME280;47345;52.334;10.392;2023-04-01T03:15:36;98853.90;;;9.69;91.92
61478;BME280;47345;52.334;10.392;2023-04-01T03:18:07;98854.90;;;9.69;91.92
61478;BME280;47345;52.334;10.392;2023-04-01T03:20:38;98852.22;;;9.69;91.96
61478;BME280;47345;52.334;10.392;2023-04-01T03:23:09;98852.16;;;9.69;92.05
61478;BME280;47345;52.334;10.392;2023-04-01T03:25:40;98854.83;;;9.69;92.01
61478;BME280;47345;52.334;10.392;2023-04-01T03:28:11;98853.44;;;9.67;92.05
61478;BME280;47345;52.334;10.392;2023-04-01T03:30:42;98854.89;;;9.66;92.11
61478;BME280;47345;52.334;10.392;2023-04-01T03:33:13;98854.77;;;9.66;92.13
61478;BME280;47345;52.334;10.392;2023-04-01T03:35:44;98853.23;;;9.65;92.21
61478;BME280;47345;52.334;10.392;2023-04-01T03:38:16;98853.44;;;9.64;92.25
61478;BME280;47345;52.334;10.392;2023-04-01T03:40:46;98854.60;;;9.64;92.24
61478;BME280;47345;52.334;10.392;2023-04-01T03:43:17;98857.95;;;9.65;92.35
61478;BME280;47345;52.334;10.392;2023-04-01T03:45:49;98858.09;;;9.64;92.25
61478;BME280;47345;52.334;10.392;2023-04-01T03:48:20;98863.22;;;9.64;92.35
61478;BME280;47345;52.334;10.392;2023-04-01T03:50:51;98859.83;;;9.64;92.18
61478;BME280;47345;52.334;10.392;2023-04-01T03:53:22;98860.52;;;9.63;92.27
61478;BME280;47345;52.334;10.392;2023-04-01T03:55:53;98860.11;;;9.62;92.23
61478;BME280;47345;52.334;10.392;2023-04-01T03:58:23;98863.61;;;9.62;92.36
61478;BME280;47345;52.334;10.392;2023-04-01T04:00:54;98861.75;;;9.62;92.52
61478;BME280;47345;52.334;10.392;2023-04-01T04:03:25;98867.77;;;9.62;92.48
61478;BME280;47345;52.334;10.392;2023-04-01T04:05:56;98866.91;;;9.60;92.38
61478;BME280;47345;52.334;10.392;2023-04-01T04:08:27;98866.52;;;9.59;92.57
61478;BME280;47345;52.334;10.392;2023-04-01T04:10:58;98869.48;;;9.60;92.62
61478;BME280;47345;52.334;10.392;2023-04-01T04:13:29;98871.63;;;9.62;92.68
61478;BME280;47345;52.334;10.392;2023-04-01T04:15:59;98873.22;;;9.62;92.75
61478;BME280;47345;52.334;10.392;2023-04-01T04:18:30;98874.98;;;9.62;92.67
61478;BME280;47345;52.334;10.392;2023-04-01T04:21:00;98876.83;;;9.62;92.64
61478;BME280;47345;52.334;10.392;2023-04-01T04:23:31;98875.48;;;9.63;92.79
61478;BME280;47345;52.334;10.392;2023-04-01T04:26:05;98877.55;;;9.63;92.66
61478;BME280;47345;52.334;10.392;2023-04-01T04:28:36;98876.02;;;9.63;92.50
61478;BME280;47345;52.334;10.392;2023-04-01T04:31:06;98877.42;;;9.62;92.50
61478;BME280;47345;52.334;10.392;2023-04-01T04:33:37;98881.17;;;9.61;92.58
61478;BME280;47345;52.334;10.392;2023-04-01T04:36:09;98884.34;;;9.61;92.71
61478;BME280;47345;52.334;10.392;2023-04-01T04:38:39;98884.72;;;9.60;92.65
61478;BME280;47345;52.334;10.392;2023-04-01T04:41:11;98887.42;;;9.59;92.63
61478;BME280;47345;52.334;10.392;2023-04-01T04:43:47;98888.29;;;9.58;92.57
61478;BME280;47345;52.334;10.392;2023-04-01T04:46:19;98893.91;;;9.58;92.77
61478;BME280;47345;52.334;10.392;2023-04-01T04:48:51;98894.80;;;9.59;92.71
61478;BME280;47345;52.334;10.392;2023-04-01T04:51:22;98892.41;;;9.60;92.76
61478;BME280;47345;52.334;10.392;2023-04-01T04:53:53;98891.42;;;9.59;92.75
61478;BME280;47345;52.334;10.392;2023-04-01T04:56:24;98891.78;;;9.58;92.69
61478;BME280;47345;52.334;10.392;2023-04-01T04:58:55;98890.70;;;9.59;92.76
61478;BME280;47345;52.334;10.392;2023-04-01T05:01:26;98894.91;;;9.59;92.87
61478;BME280;47345;52.334;10.392;2023-04-01T05:03:57;98895.52;;;9.60;92.88
61478;BME280;47345;52.334;10.392;2023-04-01T05:06:27;98901.30;;;9.59;92.82
61478;BME280;47345;52.334;10.392;2023-04-01T05:08:59;98904.95;;;9.59;92.74
61478;BME280;47345;52.334;10.392;2023-04-01T05:11:30;98899.43;;;9.58;92.82
61478;BME280;47345;52.334;10.392;2023-04-01T05:14:00;98898.69;;;9.57;92.99
61478;BME280;47345;52.334;10.392;2023-04-01T05:16:31;98905.88;;;9.59;92.93
61478;BME280;47345;52.334;10.392;2023-04-01T05:19:02;98905.28;;;9.59;92.87
61478;BME280;47345;52.334;10.392;2023-04-01T05:21:33;98906.77;;;9.60;92.83
61478;BME280;47345;52.334;10.392;2023-04-01T05:24:06;98908.77;;;9.61;93.03
61478;BME280;47345;52.334;10.392;2023-04-01T05:26:37;98907.86;;;9.63;93.18
61478;BME280;47345;52.334;10.392;2023-04-01T05:29:08;98909.98;;;9.65;92.97
61478;BME280;47345;52.334;10.392;2023-04-01T05:31:38;98909.56;;;9.67;93.01
61478;BME280;47345;52.334;10.392;2023-04-01T05:34:09;98913.30;;;9.68;92.96
61478;BME280;47345;52.334;10.392;2023-04-01T05:36:40;98914.24;;;9.69;92.89
61478;BME280;47345;52.334;10.392;2023-04-01T05:39:11;98918.59;;;9.71;92.86
61478;BME280;47345;52.334;10.392;2023-04-01T05:41:42;98912.81;;;9.71;92.81
61478;BME280;47345;52.334;10.392;2023-04-01T05:44:12;98912.06;;;9.73;92.75
61478;BME280;47345;52.334;10.392;2023-04-01T05:46:43;98913.55;;;9.72;92.70
61478;BME280;47345;52.334;10.392;2023-04-01T05:49:14;98916.16;;;9.76;92.77
61478;BME280;47345;52.334;10.392;2023-04-01T05:51:45;98918.43;;;9.78;92.69
61478;BME280;47345;52.334;10.392;2023-04-01T05:54:15;98916.56;;;9.77;92.60
61478;BME280;47345;52.334;10.392;2023-04-01T05:56:46;98922.08;;;9.80;92.70
61478;BME280;47345;52.334;10.392;2023-04-01T05:59:17;98922.59;;;9.81;92.66
61478;BME280;47345;52.334;10.392;2023-04-01T06:01:48;98924.79;;;9.82;92.67
61478;BME280;47345;52.334;10.392;2023-04-01T06:04:19;98928.83;;;9.84;92.65
61478;BME280;47345;52.334;10.392;2023-04-01T06:06:50;98930.92;;;9.86;92.62
61478;BME280;47345;52.334;10.392;2023-04-01T06:09:24;98927.13;;;9.87;92.58
61478;BME280;47345;52.334;10.392;2023-04-01T06:12:17;98931.91;;;9.90;92.56
61478;BME280;47345;52.334;10.392;2023-04-01T06:21:46;98937.20;;;9.99;92.33
61478;BME280;47345;52.334;10.392;2023-04-01T06:24:40;98938.42;;;10.03;92.37
61478;BME280;47345;52.334;10.392;2023-04-01T06:42:13;98956.26;;;10.23;92.13
61478;BME280;47345;52.334;10.392;2023-04-01T06:44:59;98951.39;;;10.26;92.22
61478;BME280;47345;52.334;10.392;2023-04-01T06:47:43;98958.90;;;10.27;91.98
61478;BME280;47345;52.334;10.392;2023-04-01T06:50:24;98958.73;;;10.30;92.15
61478;BME280;47345;52.334;10.392;2023-04-01T06:53:03;98959.95;;;10.34;92.13
61478;BME280;47345;52.334;10.392;2023-04-01T06:55:41;98957.00;;;10.38;92.08
61478;BME280;47345;52.334;10.392;2023-04-01T06:58:20;98961.15;;;10.43;92.19
61478;BME280;47345;52.334;10.392;2023-04-01T07:04:30;98964.74;;;10.57;92.17
61478;BME280;47345;52.334;10.392;2023-04-01T07:07:13;98964.95;;;10.65;92.08
61478;BME280;47345;52.334;10.392;2023-04-01T07:09:52;98967.44;;;10.71;91.92
61478;BME280;47345;52.334;10.392;2023-04-01T07:12:32;98966.44;;;10.77;91.70
61478;BME280;47345;52.334;10.392;2023-04-01T07:15:15;98970.95;;;10.83;91.47
61478;BME280;47345;52.334;10.392;2023-04-01T07:17:51;98975.38;;;10.90;91.57
61478;BME280;47345;52.334;10.392;2023-04-01T07:20:25;98978.98;;;10.98;91.41
61478;BME280;47345;52.334;10.392;2023-04-01T07:22:59;98975.62;;;11.04;91.13
61478;BME280;47345;52.334;10.392;2023-04-01T07:25:33;98977.28;;;11.11;90.99
61478;BME280;47345;52.334;10.392;2023-04-01T07:28:13;98979.11;;;11.18;90.93
61478;BME280;47345;52.334;10.392;2023-04-01T07:30:52;98982.77;;;11.22;90.42
61478;BME280;47345;52.334;10.392;2023-04-01T07:33:33;98986.34;;;11.22;89.84
61478;BME280;47345;52.334;10.392;2023-04-01T07:36:13;98990.30;;;11.24;89.77
61478;BME280;47345;52.334;10.392;2023-04-01T07:38:56;98995.02;;;11.25;89.62
61478;BME280;47345;52.334;10.392;2023-04-01T07:41:36;98997.16;;;11.27;89.66
61478;BME280;47345;52.334;10.392;2023-04-01T07:44:16;99001.46;;;11.29;89.77
61478;BME280;47345;52.334;10.392;2023-04-01T07:47:07;99003.98;;;11.33;89.56
61478;BME280;47345;52.334;10.392;2023-04-01T07:49:45;99005.05;;;11.35;89.32
61478;BME280;47345;52.334;10.392;2023-04-01T07:52:27;99012.92;;;11.38;89.21
61478;BME280;47345;52.334;10.392;2023-04-01T07:55:06;99010.86;;;11.44;89.32
61478;BME280;47345;52.334;10.392;2023-04-01T07:57:43;99009.59;;;11.47;89.26
61478;BME280;47345;52.334;10.392;2023-04-01T08:00:20;99013.70;;;11.54;89.40
61478;BME280;47345;52.334;10.392;2023-04-01T08:03:19;99013.42;;;11.62;89.69
61478;BME280;47345;52.334;10.392;2023-04-01T08:05:57;99015.39;;;11.74;89.65
61478;BME280;47345;52.334;10.392;2023-04-01T08:08:36;99016.31;;;11.83;89.10
61478;BME280;47345;52.334;10.392;2023-04-01T08:11:20;99024.05;;;11.95;89.16
61478;BME280;47345;52.334;10.392;2023-04-01T08:13:59;99025.58;;;12.07;89.00
61478;BME280;47345;52.334;10.392;2023-04-01T08:16:41;99028.38;;;12.19;88.98
61478;BME280;47345;52.334;10.392;2023-04-01T08:19:20;99026.91;;;12.28;88.09
61478;BME280;47345;52.334;10.392;2023-04-01T08:21:54;99028.09;;;12.37;87.58
61478;BME280;47345;52.334;10.392;2023-04-01T08:24:37;99030.05;;;12.48;87.28
61478;BME280;47345;52.334;10.392;2023-04-01T08:27:20;99034.36;;;12.60;87.32
61478;BME280;47345;52.334;10.392;2023-04-01T08:29:58;99034.05;;;12.69;86.71
61478;BME280;47345;52.334;10.392;2023-04-01T08:32:34;99034.76;;;12.78;86.46
61478;BME280;47345;52.334;10.392;2023-04-01T08:35:17;99038.31;;;12.86;86.10
61478;BME280;47345;52.334;10.392;2023-04-01T08:37:49;99036.33;;;12.91;84.86
61478;BME280;47345;52.334;10.392;2023-04-01T08:40:46;99039.92;;;12.95;84.48
61478;BME280;47345;52.334;10.392;2023-04-01T08:43:38;99043.11;;;12.98;83.29
61478;BME280;47345;52.334;10.392;2023-04-01T08:46:25;99046.59;;;13.01;83.06
61478;BME280;47345;52.334;10.392;2023-04-01T08:49:14;99045.80;;;13.05;82.79
61478;BME280;47345;52.334;10.392;2023-04-01T08:54:59;99046.27;;;13.10;81.88
61478;BME280;47345;52.334;10.392;2023-04-01T08:57:42;99048.09;;;13.11;81.60
61478;BME280;47345;52.334;10.392;2023-04-01T09:00:28;99048.69;;;13.10;80.58
61478;BME280;47345;52.334;10.392;2023-04-01T09:03:20;99050.22;;;13.09;80.73
61478;BME280;47345;52.334;10.392;2023-04-01T09:06:09;99049.50;;;13.10;80.58
61478;BME280;47345;52.334;10.392;2023-04-01T09:08:56;99052.15;;;13.12;80.59
61478;BME280;47345;52.334;10.392;2023-04-01T09:11:44;99056.14;;;13.18;79.99
61478;BME280;47345;52.334;10.392;2023-04-01T09:14:35;99058.42;;;13.24;79.55
61478;BME280;47345;52.334;10.392;2023-04-01T09:20:27;99059.67;;;13.34;79.24
61478;BME280;47345;52.334;10.392;2023-04-01T09:23:14;99057.61;;;13.39;78.94
61478;BME280;47345;52.334;10.392;2023-04-01T09:25:55;99061.13;;;13.44;78.80
61478;BME280;47345;52.334;10.392;2023-04-01T09:28:37;99060.56;;;13.53;79.14
61478;BME280;47345;52.334;10.392;2023-04-01T09:34:27;99059.25;;;13.69;78.02
61478;BME280;47345;52.334;10.392;2023-04-01T09:37:21;99068.02;;;13.77;77.44
61478;BME280;47345;52.334;10.392;2023-04-01T09:40:14;99075.55;;;13.82;76.66
61478;BME280;47345;52.334;10.392;2023-04-01T09:42:56;99074.71;;;13.89;77.40
61478;BME280;47345;52.334;10.392;2023-04-01T09:45:41;99079.14;;;13.99;77.49
61478;BME280;47345;52.334;10.392;2023-04-01T09:48:24;99077.29;;;14.05;76.13
61478;BME280;47345;52.334;10.392;2023-04-01T09:51:08;99079.10;;;14.08;74.67
61478;BME280;47345;52.334;10.392;2023-04-01T09:53:59;99084.61;;;14.11;75.11
61478;BME280;47345;52.334;10.392;2023-04-01T10:00:16;99086.98;;;14.19;74.19
61478;BME280;47345;52.334;10.392;2023-04-01T10:03:25;99092.13;;;14.24;74.19
61478;BME280;47345;52.334;10.392;2023-04-01T10:09:52;99100.15;;;14.30;74.04
61478;BME280;47345;52.334;10.392;2023-04-01T10:12:51;99102.57;;;14.30;73.92
61478;BME280;47345;52.334;10.392;2023-04-01T10:19:10;99105.68;;;14.16;73.03
61478;BME280;47345;52.334;10.392;2023-04-01T10:22:10;99107.20;;;14.06;72.91
61478;BME280;47345;52.334;10.392;2023-04-01T10:27:57;99111.45;;;13.95;73.74
61478;BME280;47345;52.334;10.392;2023-04-01T10:30:54;99117.67;;;13.88;73.80
61478;BME280;47345;52.334;10.392;2023-04-01T10:36:45;99112.16;;;13.77;73.93
61478;BME280;47345;52.334;10.392;2023-04-01T10:52:31;99124.01;;;13.63;74.90
61478;BME280;47345;52.334;10.392;2023-04-01T10:55:26;99126.66;;;13.64;74.99
61478;BME280;47345;52.334;10.392;2023-04-01T10:58:47;99125.23;;;13.64;75.11
61478;BME280;47345;52.334;10.392;2023-04-01T11:05:16;99130.30;;;13.67;75.27
61478;BME280;47345;52.334;10.392;2023-04-01T11:08:20;99130.44;;;13.73;75.08
61478;BME280;47345;52.334;10.392;2023-04-01T11:14:25;99134.54;;;13.91;74.47
61478;BME280;47345;52.334;10.392;2023-04-01T11:23:23;99141.45;;;14.03;73.57
61478;BME280;47345;52.334;10.392;2023-04-01T11:26:10;99145.90;;;14.04;73.49
61478;BME280;47345;52.334;10.392;2023-04-01T11:29:12;99150.08;;;14.02;73.37
61478;BME280;47345;52.334;10.392;2023-04-01T11:31:57;99151.16;;;14.00;73.48
61478;BME280;47345;52.334;10.392;2023-04-01T11:34:59;99153.63;;;13.98;73.85
61478;BME280;47345;52.334;10.392;2023-04-01T11:37:40;99154.55;;;13.95;73.84
61478;BME280;47345;52.334;10.392;2023-04-01T11:40:23;99153.39;;;13.96;74.46
61478;BME280;47345;52.334;10.392;2023-04-01T11:43:04;99156.58;;;13.95;74.25
61478;BME280;47345;52.334;10.392;2023-04-01T11:46:00;99157.90;;;13.95;74.53
61478;BME280;47345;52.334;10.392;2023-04-01T11:48:58;99164.27;;;13.93;74.06
61478;BME280;47345;52.334;10.392;2023-04-01T11:51:49;99164.15;;;13.92;73.80
61478;BME280;47345;52.334;10.392;2023-04-01T11:54:50;99170.52;;;13.90;73.70
61478;BME280;47345;52.334;10.392;2023-04-01T11:57:42;99172.34;;;13.90;73.88
61478;BME280;47345;52.334;10.392;2023-04-01T12:00:23;99179.08;;;13.88;72.97
61478;BME280;47345;52.334;10.392;2023-04-01T12:03:17;99176.43;;;13.83;73.37
61478;BME280;47345;52.334;10.392;2023-04-01T12:05:57;99182.73;;;13.82;73.74
61478;BME280;47345;52.334;10.392;2023-04-01T12:08:36;99183.02;;;13.78;73.72
61478;BME280;47345;52.334;10.392;2023-04-01T12:11:19;99184.31;;;13.75;74.18
61478;BME280;47345;52.334;10.392;2023-04-01T12:13:55;99184.23;;;13.71;74.46
61478;BME280;47345;52.334;10.392;2023-04-01T12:16:53;99190.36;;;13.66;74.76
61478;BME280;47345;52.334;10.392;2023-04-01T12:19:35;99199.50;;;13.60;74.62
61478;BME280;47345;52.334;10.392;2023-04-01T12:22:23;99201.44;;;13.53;74.99
61478;BME280;47345;52.334;10.392;2023-04-01T12:25:00;99202.83;;;13.50;75.59
61478;BME280;47345;52.334;10.392;2023-04-01T12:27:43;99201.27;;;13.44;76.15
61478;BME280;47345;52.334;10.392;2023-04-01T12:30:37;99208.52;;;13.46;76.46
61478;BME280;47345;52.334;10.392;2023-04-01T12:33:34;99209.19;;;13.45;76.94
61478;BME280;47345;52.334;10.392;2023-04-01T12:36:20;99209.83;;;13.43;76.31
61478;BME280;47345;52.334;10.392;2023-04-01T12:39:14;99212.27;;;13.37;76.58
61478;BME280;47345;52.334;10.392;2023-04-01T12:41:55;99216.69;;;13.33;76.72
61478;BME280;47345;52.334;10.392;2023-04-01T12:44:39;99216.28;;;13.29;76.87
61478;BME280;47345;52.334;10.392;2023-04-01T12:47:43;99221.80;;;13.26;77.35
61478;BME280;47345;52.334;10.392;2023-04-01T12:50:30;99231.36;;;13.24;77.76
61478;BME280;47345;52.334;10.392;2023-04-01T12:53:20;99233.76;;;13.21;78.01
61478;BME280;47345;52.334;10.392;2023-04-01T12:56:04;99233.85;;;13.15;78.08
61478;BME280;47345;52.334;10.392;2023-04-01T12:59:06;99239.41;;;13.10;78.65
61478;BME280;47345;52.334;10.392;2023-04-01T13:02:12;99239.94;;;13.07;78.95
61478;BME280;47345;52.334;10.392;2023-04-01T13:05:12;99245.44;;;13.01;79.19
61478;BME280;47345;52.334;10.392;2023-04-01T13:08:00;99245.76;;;12.95;79.36
61478;BME280;47345;52.334;10.392;2023-04-01T13:10:58;99250.25;;;12.89;79.90
61478;BME280;47345;52.334;10.392;2023-04-01T13:13:54;99252.09;;;12.86;80.54
61478;BME280;47345;52.334;10.392;2023-04-01T13:16:33;99257.02;;;12.79;80.92
61478;BME280;47345;52.334;10.392;2023-04-01T13:19:11;99261.98;;;12.71;82.03
61478;BME280;47345;52.334;10.392;2023-04-01T13:21:57;99263.34;;;12.64;82.80
61478;BME280;47345;52.334;10.392;2023-04-01T13:24:42;99267.01;;;12.59;84.27
61478;BME280;47345;52.334;10.392;2023-04-01T13:27:24;99269.50;;;12.47;85.02
61478;BME280;47345;52.334;10.392;2023-04-01T13:30:21;99272.40;;;12.32;86.13
61478;BME280;47345;52.334;10.392;2023-04-01T13:33:01;99271.61;;;12.17;86.80
61478;BME280;47345;52.334;10.392;2023-04-01T13:35:41;99272.54;;;12.05;89.16
61478;BME280;47345;52.334;10.392;2023-04-01T13:38:43;99277.91;;;11.92;89.69
61478;BME280;47345;52.334;10.392;2023-04-01T13:41:29;99276.16;;;11.69;91.15
61478;BME280;47345;52.334;10.392;2023-04-01T13:44:09;99280.98;;;11.40;94.31
61478;BME280;47345;52.334;10.392;2023-04-01T13:47:08;99288.44;;;11.12;96.32
61478;BME280;47345;52.334;10.392;2023-04-01T13:52:42;99303.17;;;10.60;97.20
61478;BME280;47345;52.334;10.392;2023-04-01T13:55:34;99302.90;;;10.42;97.47
61478;BME280;47345;52.334;10.392;2023-04-01T13:58:19;99317.09;;;10.25;98.08
61478;BME280;47345;52.334;10.392;2023-04-01T14:01:02;99315.20;;;10.09;98.35
61478;BME280;47345;52.334;10.392;2023-04-01T14:03:44;99318.56;;;9.96;98.97
61478;BME280;47345;52.334;10.392;2023-04-01T14:06:33;99312.11;;;9.83;99.68
61478;BME280;47345;52.334;10.392;2023-04-01T14:12:16;99321.22;;;9.73;100.00
61478;BME280;47345;52.334;10.392;2023-04-01T14:15:11;99325.64;;;9.68;100.00
61478;BME280;47345;52.334;10.392;2023-04-01T14:17:58;99332.73;;;9.59;99.99
61478;BME280;47345;52.334;10.392;2023-04-01T14:20:41;99337.45;;;9.53;100.00
61478;BME280;47345;52.334;10.392;2023-04-01T14:23:51;99339.62;;;9.45;100.00
61478;BME280;47345;52.334;10.392;2023-04-01T14:26:39;99344.86;;;9.41;100.00
61478;BME280;47345;52.334;10.392;2023-04-01T14:29:21;99353.83;;;9.40;100.00
61478;BME280;47345;52.334;10.392;2023-04-01T14:32:05;99363.94;;;9.38;100.00
61478;BME280;47345;52.334;10.392;2023-04-01T14:34:52;99370.23;;;9.32;100.00
61478;BME280;47345;52.334;10.392;2023-04-01T14:37:43;99369.05;;;9.29;100.00
61478;BME280;47345;52.334;10.392;2023-04-01T14:40:32;99369.95;;;9.24;100.00
61478;BME280;47345;52.334;10.392;2023-04-01T14:43:25;99378.13;;;9.19;100.00
61478;BME280;47345;52.334;10.392;2023-04-01T14:49:20;99387.66;;;9.13;100.00
61478;BME280;47345;52.334;10.392;2023-04-01T14:51:53;99389.73;;;9.06;100.00
61478;BME280;47345;52.334;10.392;2023-04-01T14:54:32;99396.11;;;8.98;100.00
61478;BME280;47345;52.334;10.392;2023-04-01T14:57:12;99399.21;;;8.90;100.00
61478;BME280;47345;52.334;10.392;2023-04-01T14:59:49;99409.90;;;8.81;100.00
61478;BME280;47345;52.334;10.392;2023-04-01T15:02:35;99411.07;;;8.70;100.00
61478;BME280;47345;52.334;10.392;2023-04-01T15:05:19;99415.23;;;8.63;100.00
61478;BME280;47345;52.334;10.392;2023-04-01T15:08:03;99419.94;;;8.53;100.00
61478;BME280;47345;52.334;10.392;2023-04-01T15:10:53;99425.23;;;8.42;100.00
61478;BME280;47345;52.334;10.392;2023-04-01T15:13:51;99428.39;;;8.36;100.00
61478;BME280;47345;52.334;10.392;2023-04-01T15:16:29;99434.69;;;8.31;100.00
61478;BME280;47345;52.334;10.392;2023-04-01T15:19:12;99437.31;;;8.28;100.00
61478;BME280;47345;52.334;10.392;2023-04-01T15:22:06;99444.33;;;8.26;100.00
61478;BME280;47345;52.334;10.392;2023-04-01T15:25:00;99447.34;;;8.23;100.00
61478;BME280;47345;52.334;10.392;2023-04-01T15:27:39;99455.70;;;8.16;100.00
61478;BME280;47345;52.334;10.392;2023-04-01T15:30:23;99464.06;;;8.11;100.00